createdAt,value
2024-04-12T00:01:18.692Z,8.10
2024-04-12T00:03:53.701Z,8.10
2024-04-12T00:07:00.644Z,8.10
2024-04-12T00:12:29.523Z,7.90
2024-04-12T00:15:20.185Z,7.80
2024-04-12T00:23:44.898Z,7.60
2024-04-12T00:26:12.734Z,7.50
2024-04-12T00:28:43.739Z,7.50
2024-04-12T00:31:14.046Z,7.40
2024-04-12T00:34:19.069Z,7.40
2024-04-12T00:36:49.998Z,7.40
2024-04-12T00:39:48.672Z,7.40
2024-04-12T00:42:29.044Z,7.30
2024-04-12T00:45:39.864Z,7.30
2024-04-12T00:48:09.594Z,7.30
2024-04-12T00:50:38.497Z,7.20
2024-04-12T00:53:05.447Z,7.20
2024-04-12T00:56:04.150Z,7.20
2024-04-12T01:10:12.239Z,7.20
2024-04-12T01:12:40.113Z,7.20
2024-04-12T01:15:08.350Z,7.20
2024-04-12T01:17:38.368Z,7.20
2024-04-12T01:20:06.935Z,7.20
2024-04-12T01:22:36.436Z,7.20
2024-04-12T01:25:07.750Z,7.10
2024-04-12T01:27:41.184Z,7.10
2024-04-12T01:30:14.632Z,7.10
2024-04-12T01:32:51.129Z,7.10
2024-04-12T01:35:22.899Z,7.10
2024-04-12T01:37:52.897Z,7.00
2024-04-12T01:40:24.693Z,7.00
2024-04-12T01:43:01.845Z,7.00
2024-04-12T01:45:29.357Z,7.00
2024-04-12T01:47:59.699Z,7.00
2024-04-12T01:50:29.152Z,7.10
2024-04-12T01:53:01.636Z,7.10
2024-04-12T01:55:33.302Z,7.10
2024-04-12T01:58:01.654Z,7.10
2024-04-12T02:00:28.675Z,7.10
2024-04-12T02:03:00.047Z,7.00
2024-04-12T02:08:40.582Z,7.00
2024-04-12T02:11:12.332Z,6.90
2024-04-12T02:13:41.142Z,6.80
2024-04-12T02:16:13.668Z,6.80
2024-04-12T02:18:46.782Z,6.80
2024-04-12T02:21:16.582Z,6.80
2024-04-12T02:23:44.960Z,6.80
2024-04-12T02:26:12.175Z,6.80
2024-04-12T02:28:42.855Z,6.80
2024-04-12T02:31:10.582Z,6.70
2024-04-12T02:33:46.335Z,6.80
2024-04-12T02:36:14.151Z,6.80
2024-04-12T02:38:52.251Z,6.90
2024-04-12T02:41:24.363Z,6.90
2024-04-12T02:44:09.436Z,6.90
2024-04-12T02:46:36.767Z,6.90
2024-04-12T02:49:31.943Z,6.80
2024-04-12T02:52:02.704Z,6.80
2024-04-12T02:54:30.248Z,6.70
2024-04-12T02:57:04.203Z,6.70
2024-04-12T02:59:39.787Z,6.70
2024-04-12T03:02:08.427Z,6.60
2024-04-12T03:04:39.793Z,6.60
2024-04-12T03:07:12.697Z,6.50
2024-04-12T03:09:43.381Z,6.40
2024-04-12T03:12:12.967Z,6.40
2024-04-12T03:14:42.326Z,6.30
2024-04-12T03:17:12.559Z,6.30
2024-04-12T03:19:45.014Z,6.20
2024-04-12T03:22:11.886Z,6.20
2024-04-12T03:24:45.114Z,6.20
2024-04-12T03:27:15.370Z,6.20
2024-04-12T03:32:48.767Z,6.10
2024-04-12T03:35:17.699Z,6.10
2024-04-12T03:38:10.883Z,6.10
2024-04-12T03:40:39.086Z,6.10
2024-04-12T03:43:14.860Z,6.10
2024-04-12T03:45:41.934Z,6.10
2024-04-12T03:48:33.919Z,6.00
2024-04-12T03:51:01.112Z,6.00
2024-04-12T03:53:31.791Z,6.00
2024-04-12T03:55:58.876Z,6.00
2024-04-12T03:58:42.207Z,6.00
2024-04-12T04:04:10.743Z,6.00
2024-04-12T04:06:45.592Z,6.00
2024-04-12T04:09:21.892Z,6.10
2024-04-12T04:11:50.117Z,6.10
2024-04-12T04:14:20.499Z,6.10
2024-04-12T04:16:52.079Z,6.20
2024-04-12T04:19:36.722Z,6.20
2024-04-12T04:22:30.806Z,6.20
2024-04-12T04:25:00.487Z,6.20
2024-04-12T04:27:28.113Z,6.20
2024-04-12T04:29:58.231Z,6.20
2024-04-12T04:32:46.027Z,6.20
2024-04-12T04:35:27.911Z,6.10
2024-04-12T04:37:58.659Z,6.10
2024-04-12T04:40:27.836Z,6.20
2024-04-12T04:43:02.217Z,6.20
2024-04-12T04:45:34.316Z,6.20
2024-04-12T04:48:01.587Z,6.20
2024-04-12T04:50:35.232Z,6.30
2024-04-12T04:53:17.923Z,6.30
2024-04-12T04:55:56.886Z,6.30
2024-04-12T04:58:24.592Z,6.30
2024-04-12T05:00:58.931Z,6.30
2024-04-12T05:03:26.486Z,6.30
2024-04-12T05:05:54.587Z,6.30
2024-04-12T05:08:36.161Z,6.40
2024-04-12T05:11:29.748Z,6.40
2024-04-12T05:14:30.799Z,6.40
2024-04-12T05:16:57.780Z,6.40
2024-04-12T05:19:26.498Z,6.40
2024-04-12T05:22:08.298Z,6.50
2024-04-12T05:24:36.558Z,6.50
2024-04-12T05:27:11.469Z,6.60
2024-04-12T05:29:41.558Z,6.60
2024-04-12T05:32:10.623Z,6.70
2024-04-12T05:34:41.539Z,6.70
2024-04-12T05:37:36.632Z,6.80
2024-04-12T05:40:06.325Z,6.80
2024-04-12T05:42:33.956Z,6.90
2024-04-12T05:45:05.328Z,6.90
2024-04-12T05:47:32.906Z,6.90
2024-04-12T05:50:02.568Z,7.00
2024-04-12T05:52:30.326Z,7.00
2024-04-12T05:55:14.136Z,7.00
2024-04-12T05:58:01.035Z,7.00
2024-04-12T06:00:28.884Z,7.00
2024-04-12T06:02:57.178Z,7.00
2024-04-12T06:05:25.810Z,7.00
2024-04-12T06:08:01.790Z,7.10
2024-04-12T06:10:33.494Z,7.10
2024-04-12T06:13:06.834Z,7.20
2024-04-12T06:15:40.063Z,7.30
2024-04-12T06:18:13.572Z,7.30
2024-04-12T06:20:44.650Z,7.40
2024-04-12T06:23:12.837Z,7.50
2024-04-12T06:25:44.751Z,7.50
2024-04-12T06:28:13.106Z,7.60
2024-04-12T06:31:06.924Z,7.60
2024-04-12T06:33:36.300Z,7.70
2024-04-12T06:36:12.656Z,7.80
2024-04-12T06:38:56.426Z,8.00
2024-04-12T06:41:25.682Z,8.00
2024-04-12T06:43:58.168Z,8.20
2024-04-12T06:46:44.699Z,8.30
2024-04-12T06:49:27.480Z,8.40
2024-04-12T06:52:11.032Z,8.50
2024-04-12T06:54:43.291Z,8.60
2024-04-12T06:57:20.053Z,8.80
2024-04-12T06:59:59.145Z,8.90
2024-04-12T07:02:30.574Z,9.10
2024-04-12T07:17:22.311Z,9.90
2024-04-12T07:20:25.246Z,10.20
2024-04-12T07:22:55.927Z,10.30
2024-04-12T07:25:27.551Z,10.50
2024-04-12T07:27:56.957Z,10.60
2024-04-12T07:30:27.764Z,10.80
2024-04-12T07:32:56.514Z,11.00
2024-04-12T07:35:25.893Z,11.20
2024-04-12T07:38:08.700Z,11.30
2024-04-12T07:40:40.962Z,11.50
2024-04-12T07:43:14.738Z,11.70
2024-04-12T07:46:00.745Z,11.80
2024-04-12T07:48:33.179Z,12.10
2024-04-12T07:51:02.799Z,12.20
2024-04-12T07:53:35.336Z,12.40
2024-04-12T07:56:10.672Z,12.60
2024-04-12T07:58:43.672Z,12.80
2024-04-12T08:01:19.187Z,12.90
2024-04-12T08:03:56.806Z,13.10
2024-04-12T08:06:39.060Z,13.30
2024-04-12T08:09:21.815Z,13.40
2024-04-12T08:12:24.670Z,13.60
2024-04-12T08:14:56.803Z,13.80
2024-04-12T08:17:25.964Z,14.00
2024-04-12T08:20:17.606Z,14.20
2024-04-12T08:22:51.440Z,14.60
2024-04-12T08:25:40.337Z,14.80
2024-04-12T08:28:07.554Z,15.00
2024-04-12T08:30:53.766Z,15.20
2024-04-12T08:33:25.675Z,15.50
2024-04-12T08:35:56.804Z,15.70
2024-04-12T08:38:27.978Z,15.90
2024-04-12T08:41:16.140Z,16.10
2024-04-12T08:44:14.797Z,16.30
2024-04-12T08:46:51.279Z,16.50
2024-04-12T08:49:46.244Z,16.80
2024-04-12T08:52:32.106Z,17.00
2024-04-12T08:55:28.404Z,17.20
2024-04-12T08:58:04.076Z,17.20
2024-04-12T09:01:23.282Z,17.30
2024-04-12T09:04:43.938Z,17.30
2024-04-12T09:07:16.311Z,17.50
2024-04-12T09:09:53.673Z,17.80
2024-04-12T09:12:30.317Z,18.00
2024-04-12T09:15:01.266Z,18.30
2024-04-12T09:17:47.379Z,18.50
2024-04-12T09:20:36.205Z,18.70
2024-04-12T09:23:34.492Z,18.90
2024-04-12T09:26:41.339Z,19.20
2024-04-12T09:29:12.902Z,19.40
2024-04-12T09:35:06.336Z,19.90
2024-04-12T09:37:50.108Z,20.20
2024-04-12T09:40:31.440Z,20.40
2024-04-12T09:43:18.925Z,20.50
2024-04-12T09:45:47.739Z,20.60
2024-04-12T09:48:40.517Z,20.80
2024-04-12T09:52:25.277Z,20.90
2024-04-12T09:55:13.199Z,21.10
2024-04-12T09:58:15.947Z,21.40
2024-04-12T10:01:10.859Z,21.40
2024-04-12T10:04:07.976Z,21.60
2024-04-12T10:07:21.835Z,21.70
2024-04-12T10:10:42.027Z,22.00
2024-04-12T10:13:43.166Z,22.20
2024-04-12T10:17:18.474Z,22.40
2024-04-12T10:20:35.553Z,22.70
2024-04-12T10:27:35.087Z,22.30
2024-04-12T10:34:44.934Z,21.80
2024-04-12T10:37:31.605Z,21.90
2024-04-12T10:40:30.912Z,21.90
2024-04-12T10:44:19.324Z,22.30
2024-04-12T10:46:48.572Z,22.60
2024-04-12T10:49:22.031Z,22.30
2024-04-12T10:51:53.455Z,22.30
2024-04-12T10:54:24.373Z,22.50
2024-04-12T10:57:20.195Z,22.60
2024-04-12T10:59:52.280Z,22.70
2024-04-12T11:02:19.824Z,23.00
2024-04-12T11:05:06.703Z,23.10
2024-04-12T11:07:34.527Z,23.40
2024-04-12T11:10:04.475Z,23.60
2024-04-12T11:12:53.514Z,23.80
2024-04-12T11:15:23.742Z,23.90
2024-04-12T11:18:11.465Z,24.10
2024-04-12T11:21:22.514Z,24.30
2024-04-12T11:24:21.291Z,24.50
2024-04-12T11:27:07.311Z,24.80
2024-04-12T11:29:59.594Z,24.70
2024-04-12T11:32:27.873Z,24.70
2024-04-12T11:34:57.123Z,24.50
2024-04-12T11:37:26.514Z,24.10
2024-04-12T11:39:57.555Z,24.20
2024-04-12T11:42:28.573Z,24.20
2024-04-12T11:44:55.858Z,24.30
2024-04-12T11:47:32.081Z,24.30
2024-04-12T11:50:11.048Z,24.10
2024-04-12T11:52:42.603Z,23.80
2024-04-12T11:55:16.974Z,23.80
2024-04-12T11:57:46.083Z,23.80
2024-04-12T12:06:31.478Z,24.00
2024-04-12T12:09:12.357Z,23.80
2024-04-12T12:12:14.730Z,23.60
2024-04-12T12:14:53.451Z,23.90
2024-04-12T12:17:22.377Z,24.20
2024-04-12T12:19:54.371Z,24.40
2024-04-12T12:22:22.409Z,24.70
2024-04-12T12:24:49.913Z,24.40
2024-04-12T12:27:20.464Z,24.40
2024-04-12T12:30:19.950Z,24.40
2024-04-12T12:32:50.808Z,24.60
2024-04-12T12:35:25.943Z,24.90
2024-04-12T12:37:56.047Z,25.10
2024-04-12T12:40:30.714Z,25.20
2024-04-12T12:43:13.598Z,25.30
2024-04-12T12:45:41.894Z,25.40
2024-04-12T12:48:22.980Z,25.30
2024-04-12T12:51:01.809Z,25.40
2024-04-12T12:53:37.767Z,25.50
2024-04-12T12:56:08.010Z,25.60
2024-04-12T12:58:38.503Z,25.80
2024-04-12T13:01:42.504Z,26.00
2024-04-12T13:04:11.090Z,26.20
2024-04-12T13:06:44.264Z,26.30
2024-04-12T13:09:17.890Z,26.10
2024-04-12T13:11:45.066Z,25.60
2024-04-12T13:14:14.025Z,25.70
2024-04-12T13:16:42.821Z,25.80
2024-04-12T13:19:16.268Z,25.80
2024-04-12T13:24:44.628Z,25.80
2024-04-12T13:27:15.374Z,25.90
2024-04-12T13:29:42.920Z,25.90
2024-04-12T13:32:13.383Z,26.10
2024-04-12T13:34:40.860Z,26.30
2024-04-12T13:37:08.336Z,26.30
2024-04-12T13:39:36.124Z,26.30
2024-04-12T13:42:07.009Z,26.50
2024-04-12T13:44:54.101Z,26.60
2024-04-12T13:47:40.926Z,26.80
2024-04-12T13:50:30.112Z,26.60
2024-04-12T13:52:57.712Z,26.60
2024-04-12T13:55:25.492Z,26.60
2024-04-12T13:57:53.556Z,26.60
2024-04-12T14:00:30.876Z,26.60
2024-04-12T14:03:08.783Z,26.40
2024-04-12T14:05:37.705Z,26.40
2024-04-12T14:08:15.729Z,26.40
2024-04-12T14:10:47.356Z,26.00
2024-04-12T14:13:26.123Z,25.80
2024-04-12T14:15:59.965Z,25.60
2024-04-12T14:18:27.667Z,25.80
2024-04-12T14:21:00.413Z,25.90
2024-04-12T14:23:34.304Z,26.10
2024-04-12T14:26:28.574Z,26.10
2024-04-12T14:29:01.078Z,26.20
2024-04-12T14:31:28.626Z,26.20
2024-04-12T14:34:27.801Z,26.20
2024-04-12T14:36:57.695Z,26.10
2024-04-12T14:39:29.275Z,26.10
2024-04-12T14:41:57.153Z,26.10
2024-04-12T14:44:41.318Z,25.90
2024-04-12T14:47:09.039Z,25.70
2024-04-12T14:50:36.965Z,25.50
2024-04-12T14:53:16.754Z,25.30
2024-04-12T14:55:47.902Z,24.90
2024-04-12T14:58:15.259Z,24.90
2024-04-12T15:00:49.483Z,25.10
2024-04-12T15:03:39.335Z,25.20
2024-04-12T15:06:27.784Z,25.40
2024-04-12T15:09:19.985Z,25.50
2024-04-12T15:12:06.238Z,25.60
2024-04-12T15:14:53.874Z,25.60
2024-04-12T15:17:40.187Z,25.40
2024-04-12T15:20:26.753Z,25.40
2024-04-12T15:23:23.303Z,25.40
2024-04-12T15:26:09.768Z,25.40
2024-04-12T15:28:56.856Z,25.50
2024-04-12T15:31:45.906Z,25.50
2024-04-12T15:34:32.471Z,25.20
2024-04-12T15:37:20.200Z,25.10
2024-04-12T15:40:08.687Z,24.80
2024-04-12T15:42:54.857Z,24.70
2024-04-12T15:48:32.043Z,24.60
2024-04-12T15:51:02.100Z,24.60
2024-04-12T15:53:31.439Z,24.60
2024-04-12T15:56:20.566Z,24.50
2024-04-12T16:02:00.092Z,24.40
2024-04-12T16:04:54.700Z,24.30
2024-04-12T16:07:42.182Z,24.10
2024-04-12T16:10:40.996Z,23.90
2024-04-12T16:13:11.007Z,23.70
2024-04-12T16:15:40.904Z,23.60
2024-04-12T16:18:09.343Z,23.50
2024-04-12T16:20:40.079Z,23.40
2024-04-12T16:23:10.933Z,23.30
2024-04-12T16:25:47.136Z,23.30
2024-04-12T16:28:21.843Z,23.20
2024-04-12T16:31:00.839Z,23.10
2024-04-12T16:33:32.190Z,23.00
2024-04-12T16:36:06.511Z,22.90
2024-04-12T16:38:35.408Z,22.80
2024-04-12T16:41:04.048Z,22.70
2024-04-12T16:43:33.374Z,22.50
2024-04-12T16:46:00.371Z,22.40
2024-04-12T16:48:28.592Z,22.20
2024-04-12T16:50:55.666Z,22.10
2024-04-12T16:53:22.914Z,22.10
2024-04-12T16:55:50.134Z,22.00
2024-04-12T16:58:18.167Z,21.90
2024-04-12T17:00:46.296Z,21.80
2024-04-12T17:03:27.640Z,21.70
2024-04-12T17:06:01.856Z,21.60
2024-04-12T17:08:29.784Z,21.60
2024-04-12T17:10:56.918Z,21.50
2024-04-12T17:13:26.339Z,21.50
2024-04-12T17:15:53.540Z,21.40
2024-04-12T17:18:21.937Z,21.30
2024-04-12T17:21:02.381Z,21.20
2024-04-12T17:23:31.311Z,21.20
2024-04-12T17:26:04.462Z,21.10
2024-04-12T17:28:31.864Z,21.00
2024-04-12T17:30:59.832Z,21.00
2024-04-12T17:33:31.682Z,21.00
2024-04-12T17:35:58.878Z,20.90
2024-04-12T17:38:26.006Z,20.90
2024-04-12T17:40:55.184Z,20.80
2024-04-12T17:43:22.224Z,20.80
2024-04-12T17:45:49.368Z,20.70
2024-04-12T17:48:16.560Z,20.60
2024-04-12T17:50:57.926Z,20.50
2024-04-12T17:53:26.036Z,20.50
2024-04-12T17:56:02.120Z,20.40
2024-04-12T17:58:30.517Z,20.30
2024-04-12T18:01:04.453Z,20.10
2024-04-12T18:03:34.068Z,20.00
2024-04-12T18:06:01.755Z,19.90
2024-04-12T18:08:28.725Z,19.80
2024-04-12T18:11:05.264Z,19.70
2024-04-12T18:13:46.143Z,19.40
2024-04-12T18:16:13.107Z,19.20
2024-04-12T18:18:41.417Z,18.90
2024-04-12T18:21:11.325Z,18.80
2024-04-12T18:23:38.996Z,18.60
2024-04-12T18:26:06.105Z,18.40
2024-04-12T18:28:33.260Z,18.30
2024-04-12T18:31:06.732Z,18.20
2024-04-12T18:33:35.275Z,18.10
2024-04-12T18:36:22.912Z,17.90
2024-04-12T18:39:33.557Z,17.80
2024-04-12T18:42:21.161Z,17.70
2024-04-12T18:45:09.195Z,17.50
2024-04-12T18:47:37.138Z,17.40
2024-04-12T18:50:07.054Z,17.30
2024-04-12T18:52:35.224Z,17.20
2024-04-12T18:55:04.504Z,17.10
2024-04-12T18:57:31.745Z,17.00
2024-04-12T19:00:05.369Z,16.90
2024-04-12T19:02:33.703Z,16.80
2024-04-12T19:05:00.882Z,16.70
2024-04-12T19:07:27.985Z,16.60
2024-04-12T19:09:55.935Z,16.50
2024-04-12T19:12:23.198Z,16.50
2024-04-12T19:14:52.628Z,16.40
2024-04-12T19:17:19.746Z,16.40
2024-04-12T19:20:12.221Z,16.30
2024-04-12T19:22:40.385Z,16.20
2024-04-12T19:25:09.487Z,16.10
2024-04-12T19:27:42.573Z,16.00
2024-04-12T19:30:12.942Z,16.00
2024-04-12T19:32:41.423Z,15.90
2024-04-12T19:35:08.331Z,15.80
2024-04-12T19:37:36.694Z,15.80
2024-04-12T19:40:11.816Z,15.60
2024-04-12T19:45:35.703Z,15.40
2024-04-12T19:48:03.745Z,15.30
2024-04-12T19:50:31.221Z,15.20
2024-04-12T19:52:59.140Z,15.20
2024-04-12T19:55:26.641Z,15.10
2024-04-12T19:57:54.462Z,15.00
2024-04-12T20:00:21.478Z,15.00
2024-04-12T20:02:48.930Z,14.90
2024-04-12T20:05:15.954Z,14.90
2024-04-12T20:07:43.114Z,14.80
2024-04-12T20:10:16.021Z,14.70
2024-04-12T20:12:46.345Z,14.70
2024-04-12T20:15:40.430Z,14.60
2024-04-12T20:18:10.387Z,14.50
2024-04-12T20:20:43.505Z,14.50
2024-04-12T20:23:33.599Z,14.40
2024-04-12T20:26:18.600Z,14.30
2024-04-12T20:28:52.512Z,14.20
2024-04-12T20:31:34.606Z,14.20
2024-04-12T20:34:56.208Z,14.10
2024-04-12T20:37:24.412Z,14.00
2024-04-12T20:39:52.039Z,14.00
2024-04-12T20:42:20.347Z,13.90
2024-04-12T20:44:47.511Z,13.90
2024-04-12T20:47:18.551Z,13.90
2024-04-12T20:49:49.320Z,13.80
2024-04-12T20:52:20.232Z,13.80
2024-04-12T20:54:48.354Z,13.70
2024-04-12T20:57:18.547Z,13.80
2024-04-12T20:59:52.381Z,13.70
2024-04-12T21:02:45.455Z,13.70
2024-04-12T21:05:15.526Z,13.60
2024-04-12T21:07:43.727Z,13.50
2024-04-12T21:10:13.061Z,13.40
2024-04-12T21:12:40.134Z,13.40
2024-04-12T21:15:07.510Z,13.30
2024-04-12T21:17:35.724Z,13.20
2024-04-12T21:20:03.248Z,13.20
2024-04-12T21:22:33.496Z,13.10
2024-04-12T21:25:00.599Z,13.10
2024-04-12T21:27:54.616Z,13.00
2024-04-12T21:30:23.653Z,13.00
2024-04-12T21:32:55.032Z,13.00
2024-04-12T21:35:22.219Z,12.90
2024-04-12T21:37:52.388Z,12.80
2024-04-12T21:40:21.593Z,12.70
2024-04-12T21:42:52.504Z,12.70
2024-04-12T21:45:22.192Z,12.70
2024-04-12T21:47:52.494Z,12.60
2024-04-12T21:50:19.436Z,12.60
2024-04-12T21:52:46.523Z,12.60
2024-04-12T21:55:16.576Z,12.60
2024-04-12T21:57:48.445Z,12.50
2024-04-12T22:00:18.487Z,12.50
2024-04-12T22:02:46.199Z,12.40
2024-04-12T22:05:13.451Z,12.40
2024-04-12T22:07:41.838Z,12.40
2024-04-12T22:10:12.516Z,12.30
2024-04-12T22:12:39.406Z,12.30
2024-04-12T22:15:12.035Z,12.40
2024-04-12T22:17:40.523Z,12.40
2024-04-12T22:20:09.601Z,12.50
2024-04-12T22:22:41.071Z,12.50
2024-04-12T22:25:08.471Z,12.40
2024-04-12T22:27:36.585Z,12.40
2024-04-12T22:30:04.948Z,12.30
2024-04-12T22:32:32.655Z,12.30
2024-04-12T22:35:03.035Z,12.20
2024-04-12T22:37:30.062Z,12.20
2024-04-12T22:39:56.976Z,12.10
2024-04-12T22:42:24.576Z,12.10
2024-04-12T22:45:11.643Z,12.00
2024-04-12T22:47:38.823Z,11.90
2024-04-12T22:50:07.331Z,11.80
2024-04-12T22:52:38.463Z,11.80
2024-04-12T22:55:08.829Z,11.80
2024-04-12T22:57:38.541Z,11.70
2024-04-12T23:00:13.082Z,11.70
2024-04-12T23:02:46.538Z,11.60
2024-04-12T23:05:13.438Z,11.60
2024-04-12T23:07:40.306Z,11.60
2024-04-12T23:10:10.604Z,11.50
2024-04-12T23:12:39.669Z,11.60
2024-04-12T23:15:13.765Z,11.60
2024-04-12T23:17:40.940Z,11.50
2024-04-12T23:20:13.662Z,11.40
2024-04-12T23:22:40.642Z,11.40
2024-04-12T23:25:08.521Z,11.40
2024-04-12T23:33:35.225Z,11.20
2024-04-12T23:36:04.396Z,11.10
2024-04-12T23:38:32.021Z,11.20
2024-04-12T23:41:06.970Z,11.10
2024-04-12T23:43:36.780Z,11.10
2024-04-12T23:46:10.971Z,11.10
2024-04-12T23:48:46.361Z,11.10
2024-04-12T23:51:16.871Z,11.10
2024-04-12T23:57:05.673Z,11.00
2024-04-12T23:59:35.988Z,11.00
